Shingle Springs, CA (95682)

7:10 PM PDT on August 31, 2015 (GMT -0700)
Quail Trail Estates, Shingle Springs | | Change Station
CLOSE
Current Station
Personal Weather Station
Location: Shingle Springs, CA
Elevation: 1362 ft
Nearby Weather Stations

Elev 1362 ft 38.63 °N, 120.95 °W | Updated 31 seconds ago

Clear
Clear
84.4 °F
Feels Like 82 °F
N
0.0
Wind Variable Wind from WSW
Gusts 0.0 mph

Today
High -- | Low -- °F
--% Chance of Precip.
Yesterday
High -- | Low -- °F
Precip. -- in
6:32 AM 7:35 PM
Waning Gibbous, 92% visible
Pressure 29.95 in
Visibility 10.0 miles
Clouds Clear
Heat Index 82 °F
Dew Point 44 °F
Humidity 24%
Rainfall 0.00 in
Snow Depth Not available.
UV 0 out of 12
Pollen 8.20 out of 12
Air Quality Not available.
Flu Activity Not available.
METAR KPVF 010155Z AUTO 25004KT 10SM CLR 26/04 A2995 RMK AO1
Pressure 29.95 in
Visibility 10.0 miles
Clouds Clear
Heat Index 82 °F
Dew Point 44 °F
Humidity 24%
Rainfall 0.00 in
Snow Depth Not available.
UV 0 out of 12
Pollen 8.20 out of 12
Air Quality Not available.
Flu Activity Not available.
METAR KPVF 010155Z AUTO 25004KT 10SM CLR 26/04 A2995 RMK AO1

10-Day Weather Forecast

×

Almanac

Astronomy

Aug. 31, 2015 Rise Set
Actual Time
Civil Twilight
Nautical Twilight
Astronomical Twilight
Moon
Length of Visible Light
Length of Day
Tomorrow will be .
, % of the Moon is Illuminated

Today's Extremes

State Highs State Lows

Community

WunderPhotos

Upload Photos

1,851,443 photos uploaded!

WunderBlogs® & News

Nearby

Air Quality

  Air Quality AQ Index Pollutant
Not available.

Snow Depth

Station Depth Elevation

Earthquake Activity

City Distance Mag. Time & Date
Minimum magnitude displayed is 2.5.

Coastal Water Temperatures

Place Temperature

Stations

Nearby Weather Stations

Station Location Temp. Windchill Dew Point Humidity Wind Precip. Elev Updated Type